Time;durP1;ratioP1;P1;durP2;ratioP2;P2;SDS_P1;SDS_P2;PMS_P1;PMS_P2;Temp;Humidity;BMP_temperature;BMP_pressure;BME280_temperature;BME280_humidity;BME280_pressure;Samples;Min_cycle;Max_cycle;Signal;HPM_P1;HPM_P2
2021/12/12 00:00:12;;;;;;;10.98;6.32;;;;;;;2.03;98.37;101482.03;832294;23;947;-85
2021/12/12 00:00:44;;;;;;;13.23;6.28;;;;;;;2.01;98.81;101486.28;831272;23;5050;-85
2021/12/12 00:01:45;;;;;;;11.18;6.65;;;;;;;2.02;97.60;101505.19;824951;24;904;-85
2021/12/12 00:02:21;;;;;;;11.50;6.00;;;;;;;1.93;98.32;101517.72;824795;24;1522;-85
2021/12/12 00:03:05;;;;;;;11.68;6.47;;;;;;;2.10;97.47;101482.31;828470;23;1234;-85
2021/12/12 00:03:37;;;;;;;11.18;6.13;;;;;;;2.04;97.51;101494.13;835352;23;4833;-85
2021/12/12 00:04:11;;;;;;;10.48;6.10;;;;;;;1.96;97.94;101505.81;835215;23;931;-85
2021/12/12 00:04:35;;;;;;;10.80;6.13;;;;;;;1.91;98.50;101497.00;832323;23;928;-85
2021/12/12 00:04:56;;;;;;;9.57;6.20;;;;;;;1.92;99.07;101498.75;832093;23;1194;-85
2021/12/12 00:05:21;;;;;;;12.10;6.50;;;;;;;1.98;98.96;101501.63;836338;23;1253;-85
2021/12/12 00:05:49;;;;;;;10.75;5.63;;;;;;;2.17;97.27;101500.72;837385;23;763;-85
2021/12/12 00:06:16;;;;;;;12.82;6.43;;;;;;;2.23;96.17;101484.63;831314;23;4404;-85
2021/12/12 00:06:41;;;;;;;13.68;6.40;;;;;;;2.31;95.82;101483.25;835922;23;950;-85
2021/12/12 00:07:10;;;;;;;10.38;5.95;;;;;;;2.41;95.06;101494.84;835267;23;1267;-85
2021/12/12 00:07:31;;;;;;;11.88;6.13;;;;;;;2.34;95.38;101485.94;832284;23;1204;-85
2021/12/12 00:07:52;;;;;;;11.97;6.33;;;;;;;2.25;96.10;101502.75;826724;23;1110;-85
2021/12/12 00:08:14;;;;;;;11.95;6.30;;;;;;;2.18;96.91;101481.81;826711;23;1470;-85
2021/12/12 00:08:36;;;;;;;10.68;6.45;;;;;;;2.17;97.12;101515.31;827046;23;1186;-85
2021/12/12 00:09:08;;;;;;;11.55;6.22;;;;;;;2.20;96.88;101484.47;827165;23;1122;-85
2021/12/12 00:09:36;;;;;;;11.25;6.00;;;;;;;2.08;97.10;101514.91;827957;23;4786;-85
2021/12/12 00:10:15;;;;;;;13.85;6.18;;;;;;;2.03;97.54;101491.50;831568;23;907;-85
2021/12/12 00:10:40;;;;;;;11.95;6.20;;;;;;;2.25;96.64;101490.72;828083;23;1233;-85
2021/12/12 00:11:07;;;;;;;10.52;5.78;;;;;;;2.31;95.83;101485.84;833382;23;817;-84
2021/12/12 00:11:33;;;;;;;11.95;5.93;;;;;;;2.22;96.42;101498.34;835810;23;1357;-85
2021/12/12 00:11:54;;;;;;;12.43;6.20;;;;;;;2.13;97.12;101509.16;833151;23;1141;-86
2021/12/12 00:12:20;;;;;;;12.90;6.30;;;;;;;2.13;97.18;101527.22;827839;23;4296;-86
2021/12/12 00:12:46;;;;;;;13.65;6.07;;;;;;;2.20;96.69;101481.88;829859;23;1285;-85
2021/12/12 00:13:23;;;;;;;12.20;5.68;;;;;;;2.26;96.18;101510.56;827309;23;1070;-85
2021/12/12 00:13:52;;;;;;;10.90;6.03;;;;;;;2.29;95.92;101508.09;830590;23;872;-85
2021/12/12 00:14:20;;;;;;;10.70;6.20;;;;;;;2.21;96.36;101501.72;830670;23;1224;-85
2021/12/12 00:14:41;;;;;;;10.65;5.50;;;;;;;2.18;96.22;101486.13;831479;23;1326;-85
2021/12/12 00:15:03;;;;;;;11.00;5.90;;;;;;;2.15;96.21;101481.72;830987;23;1166;-85
2021/12/12 00:15:24;;;;;;;11.30;5.75;;;;;;;2.10;96.71;101484.91;817212;23;4313;-85
2021/12/12 00:15:47;;;;;;;9.76;5.34;;;;;;;2.07;97.12;101493.38;826278;23;1356;-85
2021/12/12 00:16:08;;;;;;;10.37;5.43;;;;;;;2.02;97.61;101498.38;834848;23;1152;-86
2021/12/12 00:16:29;;;;;;;12.80;5.75;;;;;;;1.98;97.73;101493.88;828185;23;1324;-85
2021/12/12 00:16:51;;;;;;;11.70;5.72;;;;;;;1.98;97.89;101488.72;832873;23;1219;-85
2021/12/12 00:17:13;;;;;;;11.38;6.10;;;;;;;1.93;98.02;101485.06;833117;23;1309;-86
2021/12/12 00:17:36;;;;;;;10.98;5.85;;;;;;;1.93;98.01;101495.38;828705;23;1305;-85
2021/12/12 00:17:58;;;;;;;10.13;6.00;;;;;;;1.98;97.44;101518.78;824669;23;1200;-85
2021/12/12 00:18:19;;;;;;;11.88;5.90;;;;;;;2.00;97.81;101487.09;808816;23;4482;-85
2021/12/12 00:18:40;;;;;;;12.07;5.50;;;;;;;2.03;97.67;101536.22;826176;23;1213;-86
2021/12/12 00:19:01;;;;;;;11.63;5.50;;;;;;;2.00;98.15;101504.25;830463;23;1325;-85
2021/12/12 00:19:23;;;;;;;11.73;5.75;;;;;;;2.09;97.60;101486.63;827364;23;1091;-86
2021/12/12 00:19:44;;;;;;;11.57;6.20;;;;;;;2.16;96.80;101532.50;828678;23;797;-85
2021/12/12 00:20:09;;;;;;;11.07;5.93;;;;;;;2.24;96.88;101481.19;823238;23;1138;-86
2021/12/12 00:20:31;;;;;;;13.07;6.22;;;;;;;2.15;96.88;101486.88;824258;24;1023;-85
2021/12/12 00:20:52;;;;;;;11.25;5.82;;;;;;;2.10;97.36;101487.50;827873;23;932;-85
2021/12/12 00:21:18;;;;;;;10.13;5.70;;;;;;;2.27;96.28;101501.09;821824;23;4272;-85
2021/12/12 00:21:42;;;;;;;10.43;5.45;;;;;;;2.31;96.01;101496.16;822249;23;1588;-85
2021/12/12 00:22:08;;;;;;;10.48;5.68;;;;;;;2.31;96.14;101477.19;822739;23;1407;-86
2021/12/12 00:22:30;;;;;;;10.80;5.55;;;;;;;2.26;96.00;101484.75;825579;23;1217;-85
2021/12/12 00:22:55;;;;;;;12.85;5.85;;;;;;;2.14;97.21;101479.06;827711;23;935;-86
2021/12/12 00:23:19;;;;;;;11.27;5.85;;;;;;;2.17;97.64;101474.03;822210;23;1086;-85
2021/12/12 00:23:40;;;;;;;14.50;5.63;;;;;;;2.08;97.55;101491.69;821899;23;1194;-85
2021/12/12 00:24:06;;;;;;;13.02;6.30;;;;;;;2.10;97.66;101490.06;827536;23;1194;-86
2021/12/12 00:24:27;;;;;;;13.18;5.80;;;;;;;2.06;97.71;101486.47;824959;23;4778;-85
2021/12/12 00:24:48;;;;;;;11.45;5.80;;;;;;;2.00;97.68;101519.75;830005;23;1086;-85
2021/12/12 00:25:10;;;;;;;12.90;5.82;;;;;;;1.99;97.86;101490.47;830561;23;1243;-85
2021/12/12 00:25:36;;;;;;;11.80;5.53;;;;;;;1.98;97.87;101508.47;834237;23;1367;-85
2021/12/12 00:25:58;;;;;;;10.85;5.60;;;;;;;1.95;97.60;101479.97;822737;23;1511;-86
2021/12/12 00:26:19;;;;;;;9.48;5.70;;;;;;;1.93;98.18;101500.53;826534;23;1323;-85
2021/12/12 00:26:40;;;;;;;8.82;5.50;;;;;;;1.90;98.14;101521.03;825359;23;1157;-86
2021/12/12 00:27:01;;;;;;;9.40;5.45;;;;;;;1.92;98.16;101487.56;831032;23;987;-85
2021/12/12 00:27:23;;;;;;;10.57;5.40;;;;;;;1.91;98.23;101504.75;824972;23;4314;-86
2021/12/12 00:27:44;;;;;;;11.25;5.40;;;;;;;1.89;98.47;101488.31;824419;23;983;-86
2021/12/12 00:28:05;;;;;;;11.10;5.72;;;;;;;1.83;98.71;101500.94;826740;23;1405;-86
2021/12/12 00:28:27;;;;;;;11.13;5.43;;;;;;;1.84;98.31;101484.63;828959;23;952;-86
2021/12/12 00:28:49;;;;;;;9.82;5.50;;;;;;;1.81;98.56;101482.81;826460;23;1472;-86
2021/12/12 00:29:12;;;;;;;11.02;5.72;;;;;;;1.83;98.59;101493.22;827546;23;994;-85
2021/12/12 00:29:33;;;;;;;11.00;5.45;;;;;;;1.86;98.81;101490.75;829927;23;1157;-85
2021/12/12 00:30:02;;;;;;;11.25;5.43;;;;;;;1.95;99.23;101488.59;832684;23;1002;-85
2021/12/12 00:30:24;;;;;;;10.70;5.80;;;;;;;1.93;98.79;101492.78;833712;23;4363;-86
2021/12/12 00:30:46;;;;;;;10.60;5.50;;;;;;;1.89;98.71;101519.25;833472;23;1220;-85
2021/12/12 00:31:12;;;;;;;8.65;5.43;;;;;;;1.88;99.05;101486.53;835167;23;943;-85
2021/12/12 00:31:33;;;;;;;9.35;5.40;;;;;;;1.87;99.19;101500.28;829324;23;1208;-85
2021/12/12 00:31:57;;;;;;;9.23;5.20;;;;;;;1.86;98.86;101501.06;823307;24;1188;-86
2021/12/12 00:32:22;;;;;;;10.52;5.53;;;;;;;1.87;98.75;101497.69;830639;23;1209;-85
2021/12/12 00:32:43;;;;;;;10.98;5.43;;;;;;;1.85;99.02;101495.03;826794;23;1270;-85
2021/12/12 00:33:05;;;;;;;9.90;5.15;;;;;;;1.88;98.65;101489.13;831050;23;1190;-85
2021/12/12 00:33:26;;;;;;;10.25;5.10;;;;;;;1.92;98.46;101491.03;825587;23;4744;-85
2021/12/12 00:33:56;;;;;;;10.65;5.20;;;;;;;1.90;98.96;101496.91;831636;23;1906;-85
2021/12/12 00:34:18;;;;;;;12.18;5.47;;;;;;;1.94;98.29;101512.63;829228;23;1360;-86
2021/12/12 00:34:44;;;;;;;11.85;5.32;;;;;;;1.98;98.14;101532.56;825609;23;1246;-85
2021/12/12 00:35:12;;;;;;;11.15;5.10;;;;;;;2.05;98.07;101510.50;835371;23;1224;-86
2021/12/12 00:35:33;;;;;;;9.63;5.20;;;;;;;2.06;97.93;101483.88;825917;23;1367;-85
2021/12/12 00:35:53;;;;;;;10.57;5.35;;;;;;;2.10;98.00;101523.59;827956;23;813;-85
2021/12/12 00:36:18;;;;;;;11.27;5.37;;;;;;;2.27;96.57;101512.31;824041;23;4282;-86
2021/12/12 00:36:41;;;;;;;10.02;5.30;;;;;;;2.23;96.64;101510.44;822439;23;1252;-85
2021/12/12 00:37:06;;;;;;;10.52;5.25;;;;;;;2.18;96.76;101487.00;824346;24;1015;-86
2021/12/12 00:37:28;;;;;;;11.30;5.20;;;;;;;2.13;96.82;101509.16;826551;23;1214;-85
2021/12/12 00:37:56;;;;;;;11.20;5.30;;;;;;;2.07;97.15;101482.19;827727;23;1342;-85
2021/12/12 00:38:22;;;;;;;9.10;4.82;;;;;;;2.02;97.34;101524.16;831048;23;1287;-85
2021/12/12 00:38:54;;;;;;;9.98;5.22;;;;;;;1.99;97.96;101495.63;827062;23;884;-86
2021/12/12 00:39:20;;;;;;;9.75;5.07;;;;;;;1.95;98.25;101482.53;831152;23;4263;-85
2021/12/12 00:39:45;;;;;;;9.75;4.88;;;;;;;1.93;98.69;101490.22;834199;23;1305;-86
2021/12/12 00:40:16;;;;;;;9.77;5.03;;;;;;;1.93;98.68;101490.22;830382;23;1673;-85
2021/12/12 00:40:43;;;;;;;9.75;5.10;;;;;;;1.93;98.70;101490.22;832448;23;938;-85
2021/12/12 00:41:08;;;;;;;10.35;5.13;;;;;;;1.91;98.41;101491.84;830237;23;1375;-85
2021/12/12 00:41:44;;;;;;;10.20;5.05;;;;;;;1.93;98.64;101490.22;838313;23;1173;-86
2021/12/12 00:42:12;;;;;;;12.52;5.28;;;;;;;1.92;98.64;101492.72;830097;23;1014;-85
2021/12/12 00:42:36;;;;;;;12.35;5.38;;;;;;;1.89;98.67;101495.19;829252;23;4876;-86
2021/12/12 00:43:01;;;;;;;11.20;5.10;;;;;;;1.87;98.70;101518.31;834916;23;1287;-85
2021/12/12 00:43:29;;;;;;;10.68;5.43;;;;;;;1.89;98.86;101508.06;830603;23;1288;-85
2021/12/12 00:43:51;;;;;;;10.60;5.43;;;;;;;1.94;98.72;101492.00;825906;23;1177;-85
2021/12/12 00:44:17;;;;;;;8.98;4.80;;;;;;;2.01;98.43;101494.00;830467;23;1296;-86
2021/12/12 00:44:40;;;;;;;10.60;4.88;;;;;;;2.05;98.06;101489.88;829067;23;1206;-85
2021/12/12 00:45:11;;;;;;;10.43;5.25;;;;;;;2.07;97.69;101506.28;834072;23;986;-86
2021/12/12 00:45:31;;;;;;;9.98;5.10;;;;;;;2.04;97.32;101519.94;825866;23;4684;-85
2021/12/12 00:45:58;;;;;;;9.20;4.90;;;;;;;1.99;98.22;101518.84;826845;23;1169;-85
2021/12/12 00:46:22;;;;;;;10.57;5.00;;;;;;;2.04;97.98;101493.25;827780;23;1006;-85
2021/12/12 00:46:45;;;;;;;11.48;5.20;;;;;;;2.00;97.78;101489.66;832128;23;847;-85
2021/12/12 00:47:07;;;;;;;10.95;5.13;;;;;;;1.99;98.17;101505.06;829696;23;1227;-85
2021/12/12 00:47:27;;;;;;;9.57;4.82;;;;;;;1.97;98.41;101493.81;829071;23;1386;-85
2021/12/12 00:47:48;;;;;;;9.23;4.80;;;;;;;1.95;98.69;101514.38;827643;23;861;-85
2021/12/12 00:48:09;;;;;;;9.63;5.27;;;;;;;1.91;98.73;101486.69;825635;23;4417;-86
2021/12/12 00:48:33;;;;;;;10.73;4.97;;;;;;;1.93;98.70;101484.19;825557;23;1346;-85
2021/12/12 00:48:54;;;;;;;11.05;4.65;;;;;;;1.90;99.10;101500.41;830923;23;1281;-86
2021/12/12 00:49:16;;;;;;;11.32;5.03;;;;;;;1.89;98.91;101490.91;826589;23;1422;-85
2021/12/12 00:49:39;;;;;;;9.82;4.95;;;;;;;2.02;99.06;101503.53;829732;23;1202;-86
2021/12/12 00:50:02;;;;;;;10.82;4.80;;;;;;;2.06;98.78;101506.22;829967;23;1374;-84
2021/12/12 00:50:32;;;;;;;9.82;5.10;;;;;;;2.03;98.00;101497.53;830468;23;1357;-85
2021/12/12 00:50:52;;;;;;;9.52;4.70;;;;;;;2.02;98.26;101508.69;829964;23;1375;-86
2021/12/12 00:51:17;;;;;;;9.98;5.05;;;;;;;2.00;98.66;101492.25;830143;23;4307;-85
2021/12/12 00:51:44;;;;;;;9.18;4.75;;;;;;;2.08;97.80;101489.09;830182;23;1177;-86
2021/12/12 00:52:06;;;;;;;11.23;5.03;;;;;;;2.07;97.78;101513.16;831268;23;1054;-85
2021/12/12 00:52:27;;;;;;;11.95;5.03;;;;;;;2.02;97.90;101482.88;830931;23;977;-85
2021/12/12 00:52:49;;;;;;;10.27;4.63;;;;;;;2.01;98.03;101506.91;833831;23;1137;-86
2021/12/12 00:53:11;;;;;;;8.23;4.63;;;;;;;2.01;98.08;101477.66;833923;23;1280;-86
2021/12/12 00:53:35;;;;;;;8.95;4.55;;;;;;;1.99;98.26;101513.69;821744;23;1206;-86
2021/12/12 00:53:57;;;;;;;8.38;4.82;;;;;;;1.99;98.19;101485.31;830227;23;1927;-85
2021/12/12 00:54:20;;;;;;;10.57;4.93;;;;;;;1.96;98.34;101500.66;820547;23;4288;-84
2021/12/12 00:54:43;;;;;;;10.05;4.80;;;;;;;1.96;98.64;101489.47;829433;23;1626;-85
2021/12/12 00:55:04;;;;;;;10.80;4.82;;;;;;;1.94;98.62;101497.16;828923;23;1088;-86
2021/12/12 00:55:25;;;;;;;9.93;4.85;;;;;;;1.93;98.88;101495.38;831505;23;1391;-85
2021/12/12 00:55:47;;;;;;;10.57;4.82;;;;;;;1.92;98.81;101487.56;823119;23;1273;-86
2021/12/12 00:56:08;;;;;;;8.70;4.70;;;;;;;1.97;98.51;101486.94;827423;23;880;-86
2021/12/12 00:56:29;;;;;;;9.88;4.50;;;;;;;2.07;97.70;101493.38;827355;23;1006;-86
2021/12/12 00:56:49;;;;;;;9.98;4.55;;;;;;;2.02;98.14;101500.94;826772;23;1300;-86
2021/12/12 00:57:15;;;;;;;10.00;4.65;;;;;;;1.99;98.92;101479.28;829602;23;5299;-85
2021/12/12 00:57:37;;;;;;;10.15;5.10;;;;;;;1.96;98.99;101504.94;831992;23;1051;-85
2021/12/12 00:57:57;;;;;;;8.27;4.88;;;;;;;2.08;98.87;101497.75;829780;23;1399;-85
2021/12/12 00:58:20;;;;;;;9.02;4.75;;;;;;;2.10;97.99;101513.28;836996;23;952;-85
2021/12/12 00:58:42;;;;;;;8.88;5.32;;;;;;;2.12;97.80;101511.63;835717;23;1293;-86
2021/12/12 00:59:04;;;;;;;9.13;4.63;;;;;;;2.20;97.24;101479.31;835966;23;1098;-84
2021/12/12 00:59:25;;;;;;;10.85;4.85;;;;;;;2.22;96.77;101477.69;831650;23;1156;-85
2021/12/12 00:59:47;;;;;;;10.25;4.68;;;;;;;2.15;97.69;101473.09;837218;23;1006;-85
2021/12/12 01:00:11;;;;;;;10.98;4.45;;;;;;;2.19;97.54;101475.88;831873;23;4268;-85
2021/12/12 01:00:37;;;;;;;11.55;4.30;;;;;;;2.31;97.02;101480.66;827891;23;1185;-85
2021/12/12 01:01:14;;;;;;;9.60;4.63;;;;;;;2.35;96.33;101479.97;832143;23;1112;-85
2021/12/12 01:01:45;;;;;;;9.30;4.43;;;;;;;2.25;96.64;101467.50;828175;23;1159;-85
2021/12/12 01:02:09;;;;;;;8.95;4.70;;;;;;;2.18;97.57;101470.63;826388;23;1408;-86
2021/12/12 01:02:33;;;;;;;9.15;4.40;;;;;;;2.12;97.57;101485.84;834789;23;978;-85
2021/12/12 01:02:54;;;;;;;8.33;4.57;;;;;;;2.08;97.89;101487.44;832768;23;988;-85
2021/12/12 01:03:27;;;;;;;8.73;4.68;;;;;;;2.26;97.31;101478.69;829459;23;4407;-85
2021/12/12 01:04:02;;;;;;;9.43;4.70;;;;;;;2.37;95.75;101478.34;832162;23;947;-85
2021/12/12 01:04:29;;;;;;;9.93;4.70;;;;;;;2.49;96.05;101477.06;831535;23;1217;-85
2021/12/12 01:04:54;;;;;;;10.90;4.75;;;;;;;2.46;95.88;101477.81;832908;23;800;-85
2021/12/12 01:05:15;;;;;;;10.30;4.95;;;;;;;2.43;96.11;101492.31;833333;23;1016;-85
2021/12/12 01:05:38;;;;;;;9.83;4.57;;;;;;;2.35;95.95;101492.88;837648;23;1324;-85
2021/12/12 01:06:03;;;;;;;9.20;4.65;;;;;;;2.36;96.21;101473.13;826474;23;1361;-84
2021/12/12 01:06:25;;;;;;;10.25;4.50;;;;;;;2.32;96.15;101479.81;821679;23;4408;-85
2021/12/12 01:06:47;;;;;;;10.20;4.43;;;;;;;2.27;96.03;101471.03;825019;23;1285;-85
2021/12/12 01:07:15;;;;;;;11.43;4.40;;;;;;;2.27;96.47;101494.25;825871;23;1282;-86
2021/12/12 01:07:41;;;;;;;8.65;4.40;;;;;;;2.41;95.93;101499.09;826653;23;928;-86
2021/12/12 01:08:04;;;;;;;8.50;4.35;;;;;;;2.31;96.50;101467.78;829841;23;1382;-85
2021/12/12 01:08:24;;;;;;;9.88;4.57;;;;;;;2.28;97.01;101462.47;821809;24;1208;-84
2021/12/12 01:08:46;;;;;;;10.20;4.40;;;;;;;2.24;96.90;101490.66;822989;23;1321;-85
2021/12/12 01:09:14;;;;;;;8.27;4.47;;;;;;;2.18;97.54;101460.31;822549;23;4305;-86
2021/12/12 01:09:43;;;;;;;9.57;4.50;;;;;;;2.29;97.17;101495.19;824166;23;979;-86
2021/12/12 01:10:23;;;;;;;8.98;4.43;;;;;;;2.29;96.56;101463.34;825569;23;1376;-84
2021/12/12 01:10:49;;;;;;;10.73;4.85;;;;;;;2.24;96.34;101449.38;824965;23;919;-85
2021/12/12 01:11:26;;;;;;;9.98;4.70;;;;;;;2.30;96.46;101460.84;830238;23;1225;-85
2021/12/12 01:11:50;;;;;;;11.07;4.65;;;;;;;2.27;96.49;101454.66;829146;23;1380;-84
2021/12/12 01:12:16;;;;;;;9.50;4.40;;;;;;;2.34;96.10;101452.41;830867;23;4288;-85
2021/12/12 01:12:38;;;;;;;9.02;4.43;;;;;;;2.50;95.39;101455.63;829143;23;1367;-85
2021/12/12 01:13:04;;;;;;;8.43;4.45;;;;;;;2.43;95.32;101456.19;826149;23;1324;-85
2021/12/12 01:13:25;;;;;;;10.00;4.60;;;;;;;2.36;95.38;101455.91;830215;23;1331;-85
2021/12/12 01:13:47;;;;;;;11.45;4.60;;;;;;;2.30;96.04;101481.47;831751;23;982;-85
2021/12/12 01:14:18;;;;;;;8.90;4.20;;;;;;;2.44;95.32;101474.31;829508;23;1929;-85
2021/12/12 01:14:43;;;;;;;10.65;4.47;;;;;;;2.46;94.94;101476.94;830596;23;1126;-86
2021/12/12 01:15:19;;;;;;;9.10;4.40;;;;;;;2.42;95.11;101459.56;835861;23;899;-85
2021/12/12 01:15:51;;;;;;;9.43;4.63;;;;;;;2.45;95.47;101459.69;832907;23;5033;-85
2021/12/12 01:16:18;;;;;;;9.20;4.35;;;;;;;2.39;95.46;101470.66;836856;23;925;-86
2021/12/12 01:16:45;;;;;;;8.75;4.18;;;;;;;2.33;95.59;101481.59;832975;23;1311;-85
2021/12/12 01:17:17;;;;;;;10.00;4.38;;;;;;;2.32;95.46;101459.19;825428;23;1427;-85
2021/12/12 01:17:42;;;;;;;10.25;4.50;;;;;;;2.41;96.00;101458.72;822147;24;1238;-86
2021/12/12 01:18:13;;;;;;;10.25;4.35;;;;;;;2.58;94.54;101459.38;822565;24;1190;-85
2021/12/12 01:18:41;;;;;;;10.32;4.25;;;;;;;2.59;94.38;101465.41;821182;24;4737;-86
2021/12/12 01:19:10;;;;;;;10.25;4.35;;;;;;;2.70;93.19;101446.06;827442;23;1287;-86
2021/12/12 01:19:40;;;;;;;10.32;4.53;;;;;;;2.67;93.85;101476.94;830125;23;833;-85
2021/12/12 01:20:31;;;;;;;9.32;4.47;;;;;;;2.53;94.77;101490.19;832393;23;792;-86
2021/12/12 01:21:03;;;;;;;9.32;4.68;;;;;;;2.49;94.48;101466.75;824088;23;1270;-86
2021/12/12 01:21:35;;;;;;;9.40;4.45;;;;;;;2.36;95.19;101458.50;830315;23;4297;-86
2021/12/12 01:22:08;;;;;;;10.38;4.70;;;;;;;2.28;96.01;101457.28;827049;23;930;-86
2021/12/12 01:22:35;;;;;;;9.63;4.85;;;;;;;2.36;95.76;101483.44;825894;23;1287;-86
2021/12/12 01:23:07;;;;;;;11.35;4.20;;;;;;;2.34;95.64;101472.16;831666;23;794;-86
2021/12/12 01:23:36;;;;;;;9.32;4.47;;;;;;;2.40;95.80;101482.75;831660;23;856;-86
2021/12/12 01:24:13;;;;;;;8.52;4.30;;;;;;;2.49;94.85;101457.31;826347;23;1083;-85
2021/12/12 01:24:39;;;;;;;8.35;4.20;;;;;;;2.46;95.06;101513.97;826434;23;4785;-86
2021/12/12 01:25:21;;;;;;;10.13;4.40;;;;;;;2.51;94.60;101460.84;831753;23;908;-86
2021/12/12 01:25:47;;;;;;;8.18;4.05;;;;;;;2.53;94.62;101460.91;829763;23;1312;-86
2021/12/12 01:26:09;;;;;;;9.23;4.00;;;;;;;2.51;94.76;101463.41;831053;23;904;-86
2021/12/12 01:26:30;;;;;;;8.68;4.30;;;;;;;2.44;95.46;101483.72;831184;23;887;-86
2021/12/12 01:27:01;;;;;;;8.85;4.20;;;;;;;2.37;95.60;101486.06;830862;23;1372;-86
2021/12/12 01:27:22;;;;;;;8.48;4.20;;;;;;;2.32;96.11;101459.19;829304;23;4277;-86
2021/12/12 01:27:43;;;;;;;8.13;4.57;;;;;;;2.29;96.19;101463.34;835754;23;987;-86
2021/12/12 01:28:04;;;;;;;9.60;4.60;;;;;;;2.28;96.34;101462.47;825536;23;1261;-85
2021/12/12 01:28:32;;;;;;;8.35;4.07;;;;;;;2.31;96.28;101467.78;827659;23;913;-85
2021/12/12 01:28:54;;;;;;;7.78;4.28;;;;;;;2.34;95.31;101459.25;827891;23;1145;-86
2021/12/12 01:29:15;;;;;;;9.07;4.22;;;;;;;2.30;95.54;101486.63;831203;23;1082;-86
2021/12/12 01:29:35;;;;;;;9.50;4.00;;;;;;;2.31;95.63;101474.59;830793;23;1325;-85
2021/12/12 01:29:56;;;;;;;9.80;4.13;;;;;;;2.27;95.96;101467.56;832847;23;979;-86
2021/12/12 01:30:17;;;;;;;9.77;4.10;;;;;;;2.24;95.97;101470.00;829914;23;4268;-86
2021/12/12 01:30:38;;;;;;;7.65;4.00;;;;;;;2.19;96.56;101467.25;829777;23;1382;-86
2021/12/12 01:31:01;;;;;;;8.20;3.90;;;;;;;2.22;96.48;101486.31;829906;23;1127;-86
2021/12/12 01:31:29;;;;;;;9.27;4.00;;;;;;;2.20;96.00;101510.28;826919;23;1366;-86
2021/12/12 01:31:51;;;;;;;9.65;4.28;;;;;;;2.16;96.64;101478.31;828169;23;1221;-86
2021/12/12 01:32:22;;;;;;;9.63;4.57;;;;;;;2.13;96.92;101461.81;831186;23;1285;-86
2021/12/12 01:32:46;;;;;;;8.38;4.30;;;;;;;2.10;97.39;101466.84;830090;23;1306;-86
2021/12/12 01:33:14;;;;;;;8.40;3.90;;;;;;;2.17;96.66;101469.78;830095;23;4302;-86
2021/12/12 01:33:41;;;;;;;7.78;3.90;;;;;;;2.35;95.69;101503.22;831197;23;859;-86
2021/12/12 01:34:17;;;;;;;9.13;4.30;;;;;;;2.31;96.16;101491.00;833815;23;1889;-86
2021/12/12 01:34:43;;;;;;;10.30;4.32;;;;;;;2.21;96.14;101510.34;830338;23;1268;-86
2021/12/12 01:35:15;;;;;;;9.77;4.13;;;;;;;2.35;96.07;101473.91;826228;23;1057;-86
2021/12/12 01:35:40;;;;;;;9.02;3.97;;;;;;;2.35;96.13;101477.41;827361;23;1098;-85
2021/12/12 01:36:12;;;;;;;11.10;4.82;;;;;;;2.37;95.61;101468.00;828002;23;1237;-86
2021/12/12 01:36:46;;;;;;;9.05;4.07;;;;;;;2.32;95.62;101469.50;831943;23;4752;-86
2021/12/12 01:38:52;;;;;;;9.10;3.90;;;;;;;2.71;93.70;101469.41;833297;23;1493;-85
2021/12/12 01:39:13;;;;;;;7.57;3.75;;;;;;;2.81;93.32;101496.47;827904;23;4269;-86
2021/12/12 01:39:39;;;;;;;9.15;4.00;;;;;;;2.77;93.07;101475.63;825786;23;1342;-86
2021/12/12 01:40:17;;;;;;;9.30;4.10;;;;;;;2.60;94.21;101474.94;826451;23;892;-87
2021/12/12 01:40:43;;;;;;;8.65;3.72;;;;;;;2.69;93.91;101465.00;822362;24;1014;-86
2021/12/12 01:41:04;;;;;;;7.25;3.67;;;;;;;2.62;93.74;101458.69;822724;24;1321;-84
2021/12/12 01:41:33;;;;;;;7.43;3.90;;;;;;;2.54;95.41;101455.78;821661;24;1186;-86
2021/12/12 01:42:27;;;;;;;9.05;3.97;;;;;;;2.50;94.59;101463.34;825258;23;877;-86
2021/12/12 01:42:59;;;;;;;8.45;4.22;;;;;;;2.49;94.31;101470.22;825730;23;6355;-86
2021/12/12 01:43:28;;;;;;;9.50;4.05;;;;;;;2.45;94.99;101496.72;826464;23;828;-86
2021/12/12 01:44:01;;;;;;;10.40;3.88;;;;;;;2.66;94.02;101512.22;829257;23;1012;-85
2021/12/12 01:44:29;;;;;;;8.30;4.00;;;;;;;2.59;94.09;101474.06;827630;23;757;-86
2021/12/12 01:44:58;;;;;;;8.90;3.60;;;;;;;2.57;94.63;101456.75;826940;23;987;-87
2021/12/12 01:45:26;;;;;;;9.23;4.05;;;;;;;2.64;93.55;101472.53;826062;23;4286;-86
2021/12/12 01:45:53;;;;;;;10.35;4.50;;;;;;;2.65;93.69;101463.97;822840;24;1217;-86
2021/12/12 01:46:28;;;;;;;9.75;4.00;;;;;;;2.74;93.39;101458.28;822443;24;1079;-86
2021/12/12 01:47:01;;;;;;;8.82;4.03;;;;;;;2.77;92.85;101457.53;818110;24;1365;-85
2021/12/12 01:47:27;;;;;;;7.22;3.60;;;;;;;2.68;93.22;101474.41;827564;23;844;-85
2021/12/12 01:47:58;;;;;;;8.05;3.70;;;;;;;2.63;94.03;101469.88;827701;23;1030;-86
2021/12/12 01:48:31;;;;;;;8.85;3.72;;;;;;;2.52;94.18;101482.34;825907;23;4266;-85
2021/12/12 01:48:59;;;;;;;8.80;3.72;;;;;;;2.46;94.71;101456.31;826222;23;1174;-86
2021/12/12 01:49:23;;;;;;;8.48;4.03;;;;;;;2.38;94.57;101469.78;823930;24;944;-85
2021/12/12 01:49:48;;;;;;;9.73;4.07;;;;;;;2.32;95.68;101484.13;822099;24;1249;-86
2021/12/12 01:50:17;;;;;;;8.27;3.92;;;;;;;2.25;95.31;101467.50;823488;24;1427;-86
2021/12/12 01:50:41;;;;;;;7.25;4.28;;;;;;;2.26;95.82;101461.53;822001;24;1194;-85
2021/12/12 01:51:10;;;;;;;8.60;4.10;;;;;;;2.38;94.41;101468.88;824484;23;1253;-86
2021/12/12 01:51:32;;;;;;;10.07;4.10;;;;;;;2.37;94.49;101485.22;827233;23;4636;-85
2021/12/12 01:51:54;;;;;;;7.15;4.00;;;;;;;2.37;94.96;101485.22;830615;23;932;-86
2021/12/12 01:52:23;;;;;;;7.72;4.00;;;;;;;2.32;94.76;101485.00;828442;23;817;-86
2021/12/12 01:52:48;;;;;;;8.75;3.95;;;;;;;2.29;95.44;101453.03;818459;24;1218;-86
2021/12/12 01:53:14;;;;;;;9.63;4.25;;;;;;;2.33;94.81;101504.81;814662;24;910;-85
2021/12/12 01:53:39;;;;;;;9.52;4.30;;;;;;;2.30;95.58;101459.94;821744;24;1313;-85
2021/12/12 01:54:04;;;;;;;8.43;4.18;;;;;;;2.32;95.23;101459.19;821752;24;1886;-86
2021/12/12 01:54:32;;;;;;;9.50;4.05;;;;;;;2.31;95.59;101460.03;821453;23;5101;-86
2021/12/12 01:55:20;;;;;;;8.40;3.85;;;;;;;2.51;94.69;101499.56;821768;23;889;-86
2021/12/12 01:55:47;;;;;;;8.63;3.97;;;;;;;2.58;94.06;101471.44;821449;23;1327;-86
2021/12/12 01:56:18;;;;;;;11.52;4.10;;;;;;;2.47;94.74;101476.16;822653;23;1014;-86
2021/12/12 01:56:53;;;;;;;8.98;4.20;;;;;;;2.55;94.15;101446.38;813574;23;1401;-86
2021/12/12 01:57:18;;;;;;;9.27;4.18;;;;;;;2.59;93.80;101453.41;820852;23;4347;-85
2021/12/12 01:57:39;;;;;;;8.65;3.88;;;;;;;2.59;93.82;101455.09;822920;23;1394;-86
2021/12/12 01:58:08;;;;;;;9.13;3.70;;;;;;;2.62;93.40;101453.53;821961;23;1310;-85
2021/12/12 01:58:31;;;;;;;9.45;4.10;;;;;;;2.56;94.08;101476.50;825612;23;1405;-86
2021/12/12 01:59:06;;;;;;;;;;;;;;;;;;;;;
2021/12/12 01:59:36;;;;;;;9.30;4.25;;;;;;;2.46;94.67;101482.13;828740;23;1306;-86
2021/12/12 02:00:00;;;;;;;9.30;3.96;;;;;;;2.43;95.02;101500.06;823871;23;1281;-88
2021/12/12 02:01:06;;;;;;;10.57;4.63;;;;;;;2.35;95.48;101479.97;823023;23;4339;-86
2021/12/12 02:01:59;;;;;;;7.72;3.60;;;;;;;2.35;95.85;101458.44;817932;24;1333;-86
2021/12/12 02:02:27;;;;;;;8.10;4.10;;;;;;;2.35;96.31;101477.41;814414;24;1162;-86
2021/12/12 02:02:48;;;;;;;8.25;4.13;;;;;;;2.35;95.88;101472.25;826766;23;1389;-86
2021/12/12 02:03:12;;;;;;;8.55;4.00;;;;;;;2.50;94.78;101456.47;821885;23;4288;-86
2021/12/12 02:03:35;;;;;;;8.32;4.00;;;;;;;2.62;94.20;101484.50;825836;23;1234;-86
2021/12/12 02:04:04;;;;;;;7.86;3.98;;;;;;;2.63;93.72;101481.13;823516;24;1185;-86
2021/12/12 02:04:35;;;;;;;9.27;4.22;;;;;;;2.67;94.21;101457.19;823112;24;990;-86
2021/12/12 02:05:03;;;;;;;8.70;3.80;;;;;;;2.62;94.10;101453.53;822429;24;958;-86
2021/12/12 02:05:26;;;;;;;8.13;3.70;;;;;;;2.52;94.21;101464.28;830679;23;1278;-86
2021/12/12 02:05:48;;;;;;;9.05;4.20;;;;;;;2.45;94.89;101457.13;830833;23;1446;-86
2021/12/12 02:06:12;;;;;;;11.52;4.25;;;;;;;2.51;94.52;101449.63;831264;23;4461;-86
2021/12/12 02:06:36;;;;;;;12.48;4.28;;;;;;;2.46;94.80;101461.47;830038;23;1201;-86
2021/12/12 02:06:58;;;;;;;10.38;4.10;;;;;;;2.41;94.94;101469.03;830392;23;1068;-86
2021/12/12 02:07:24;;;;;;;8.65;4.22;;;;;;;2.34;95.20;101483.38;831656;23;1039;-86
2021/12/12 02:07:51;;;;;;;8.48;4.20;;;;;;;2.31;95.69;101447.13;823415;23;1025;-86